Time;durP1;ratioP1;P1;durP2;ratioP2;P2;SDS_P1;SDS_P2;PMS_P1;PMS_P2;Temp;Humidity;BMP_temperature;BMP_pressure;BME280_temperature;BME280_humidity;BME280_pressure;Samples;Min_cycle;Max_cycle;Signal;HPM_P1;HPM_P2
2024/04/02 00:00:51;;;;;;;4.38;2.85;;;7.20;99.90;;;;;;5000592;28;20128;-64
2024/04/02 00:03:17;;;;;;;5.82;3.20;;;7.20;99.90;;;;;;4998375;28;20064;-64
2024/04/02 00:05:42;;;;;;;5.47;3.25;;;7.20;99.90;;;;;;4983524;28;20129;-64
2024/04/02 00:08:09;;;;;;;6.80;3.42;;;7.20;99.90;;;;;;5003195;28;20101;-64
2024/04/02 00:10:36;;;;;;;13.63;3.70;;;7.10;99.90;;;;;;4986557;28;20042;-64
2024/04/02 00:13:03;;;;;;;7.47;3.33;;;7.10;99.90;;;;;;4996158;28;20125;-64
2024/04/02 00:15:29;;;;;;;10.40;3.95;;;7.10;99.90;;;;;;4993143;28;20042;-64
2024/04/02 00:17:55;;;;;;;4.80;2.78;;;7.20;99.90;;;;;;4996858;28;20489;-64
2024/04/02 00:20:22;;;;;;;13.25;4.07;;;7.20;99.90;;;;;;4987659;28;20072;-64
2024/04/02 00:22:48;;;;;;;8.05;3.08;;;7.20;99.90;;;;;;4999750;28;20046;-64
2024/04/02 00:25:19;;;;;;;7.03;2.97;;;7.30;99.90;;;;;;4992968;28;20169;-64
2024/04/02 00:27:45;;;;;;;6.00;3.22;;;7.30;99.90;;;;;;4995262;28;20062;-64
2024/04/02 00:30:24;;;;;;;5.57;3.67;;;7.40;99.90;;;;;;4989482;28;20058;-64
2024/04/02 00:32:51;;;;;;;11.15;3.38;;;7.30;99.90;;;;;;4990753;28;20056;-64
2024/04/02 00:35:16;;;;;;;10.88;3.90;;;7.40;99.90;;;;;;4990335;28;20043;-64
2024/04/02 00:37:42;;;;;;;7.78;3.38;;;7.40;99.90;;;;;;4988549;28;20053;-64
2024/04/02 00:40:08;;;;;;;10.65;3.50;;;7.30;99.90;;;;;;5004806;28;20054;-64
2024/04/02 00:42:34;;;;;;;5.80;3.58;;;7.30;99.90;;;;;;5000629;28;20078;-64
2024/04/02 00:45:00;;;;;;;5.80;3.67;;;7.30;99.90;;;;;;5002036;28;20567;-64
2024/04/02 00:47:26;;;;;;;12.13;3.97;;;7.30;99.90;;;;;;4998412;28;20045;-64
2024/04/02 00:49:53;;;;;;;5.90;3.60;;;7.30;99.90;;;;;;4994212;28;20411;-64
2024/04/02 00:52:19;;;;;;;6.68;3.67;;;7.30;99.90;;;;;;5004742;28;20535;-64
2024/04/02 00:54:45;;;;;;;6.45;3.33;;;7.30;99.90;;;;;;4998950;28;20121;-64
2024/04/02 00:57:11;;;;;;;13.23;3.70;;;7.30;99.90;;;;;;5002930;28;20058;-64
2024/04/02 00:59:38;;;;;;;6.43;3.28;;;7.30;99.90;;;;;;5002416;28;20713;-64
2024/04/02 01:02:04;;;;;;;10.30;3.45;;;7.30;99.90;;;;;;5003697;28;20125;-64
2024/04/02 01:04:30;;;;;;;7.10;3.75;;;7.30;99.90;;;;;;5002255;28;20054;-64
2024/04/02 01:06:57;;;;;;;7.82;3.20;;;7.30;99.90;;;;;;4997929;28;20706;-64
2024/04/02 01:09:23;;;;;;;10.07;3.72;;;7.30;99.90;;;;;;5003180;28;20046;-64
2024/04/02 01:11:49;;;;;;;19.35;3.47;;;7.30;99.90;;;;;;5002354;28;20042;-64
2024/04/02 01:14:15;;;;;;;10.90;4.03;;;7.30;99.90;;;;;;4993230;28;20567;-64
2024/04/02 01:16:42;;;;;;;7.43;3.85;;;7.30;99.90;;;;;;4995221;28;20045;-64
2024/04/02 01:19:08;;;;;;;12.73;3.60;;;7.20;99.90;;;;;;5004283;28;20045;-65
2024/04/02 01:21:34;;;;;;;6.38;3.55;;;7.20;99.90;;;;;;4987369;28;20654;-64
2024/04/02 01:24:00;;;;;;;7.95;3.25;;;7.20;99.90;;;;;;4986471;28;20054;-64
2024/04/02 01:26:25;;;;;;;7.13;3.08;;;7.20;99.90;;;;;;5003754;28;20045;-64
2024/04/02 01:28:58;;;;;;;4.95;3.00;;;7.20;99.90;;;;;;5002835;28;20054;-64
2024/04/02 01:31:32;;;;;;;5.28;3.08;;;7.20;99.90;;;;;;5004193;28;20050;-64
2024/04/02 01:33:58;;;;;;;9.27;3.20;;;7.10;99.90;;;;;;5001035;28;20056;-64
2024/04/02 01:36:25;;;;;;;4.20;2.53;;;7.10;99.90;;;;;;5002896;28;20050;-64
2024/04/02 01:38:50;;;;;;;7.55;3.03;;;7.10;99.90;;;;;;4989033;28;20132;-63
2024/04/02 01:41:16;;;;;;;6.75;3.10;;;7.10;99.90;;;;;;5001258;28;20662;-64
2024/04/02 01:43:42;;;;;;;3.67;2.28;;;7.10;99.90;;;;;;5001384;28;20131;-64
2024/04/02 01:46:08;;;;;;;4.97;2.65;;;7.10;99.90;;;;;;4996171;28;20400;-64
2024/04/02 01:48:33;;;;;;;8.50;2.65;;;7.20;99.90;;;;;;4985208;28;20050;-64
2024/04/02 01:50:59;;;;;;;7.35;3.15;;;7.20;99.90;;;;;;4987037;28;20038;-64
2024/04/02 01:53:25;;;;;;;9.52;3.05;;;7.20;99.90;;;;;;4999676;28;20565;-64
2024/04/02 01:55:51;;;;;;;7.35;3.22;;;7.20;99.90;;;;;;5001546;28;20057;-64
2024/04/02 01:58:17;;;;;;;11.27;3.35;;;7.20;99.90;;;;;;4994172;28;20065;-63
2024/04/02 02:00:44;;;;;;;6.10;2.90;;;7.10;99.90;;;;;;4993776;28;20034;-64
2024/04/02 02:03:09;;;;;;;9.40;3.13;;;7.10;99.90;;;;;;5000444;28;20054;-64
2024/04/02 02:05:35;;;;;;;6.88;2.47;;;7.10;99.90;;;;;;4996054;28;20095;-64
2024/04/02 02:08:01;;;;;;;13.10;3.00;;;7.00;99.90;;;;;;5003433;28;20041;-64
2024/04/02 02:10:26;;;;;;;5.88;2.90;;;7.00;99.90;;;;;;4992880;28;20053;-64
2024/04/02 02:12:52;;;;;;;14.95;3.30;;;7.10;99.90;;;;;;4984407;28;20818;-62
2024/04/02 02:15:18;;;;;;;10.85;3.17;;;7.10;99.90;;;;;;4995448;28;20045;-62
2024/04/02 02:17:50;;;;;;;7.28;3.67;;;7.00;99.90;;;;;;4997748;28;20405;-62
2024/04/02 02:20:15;;;;;;;11.27;3.50;;;7.00;99.90;;;;;;4988202;28;20090;-62
2024/04/02 02:22:41;;;;;;;9.23;3.53;;;7.00;99.90;;;;;;4994404;28;20098;-62
2024/04/02 02:25:07;;;;;;;9.32;4.72;;;7.00;99.90;;;;;;4996064;28;20485;-61
2024/04/02 02:27:33;;;;;;;12.00;3.70;;;6.90;99.90;;;;;;5002856;28;20050;-62
2024/04/02 02:29:59;;;;;;;10.98;4.20;;;6.90;99.90;;;;;;4992426;28;20050;-62
2024/04/02 02:32:24;;;;;;;6.65;4.22;;;6.90;99.90;;;;;;4993685;28;20399;-62
2024/04/02 02:34:50;;;;;;;13.85;4.60;;;7.00;99.90;;;;;;4987000;28;20057;-62
2024/04/02 02:37:16;;;;;;;7.22;4.45;;;7.00;99.90;;;;;;4996562;28;20065;-62
2024/04/02 02:39:42;;;;;;;16.50;4.32;;;7.00;99.90;;;;;;5001193;28;20510;-62
2024/04/02 02:42:08;;;;;;;11.10;4.20;;;7.10;99.90;;;;;;5002334;28;20144;-62
2024/04/02 02:44:33;;;;;;;12.95;4.68;;;7.00;99.90;;;;;;4994580;28;20101;-62
2024/04/02 02:46:59;;;;;;;6.25;4.32;;;7.00;99.90;;;;;;4991802;28;20046;-62
2024/04/02 02:49:25;;;;;;;9.55;4.90;;;7.10;99.90;;;;;;4991641;28;20052;-62
2024/04/02 02:51:51;;;;;;;9.82;4.43;;;7.10;99.90;;;;;;4989810;28;20054;-63
2024/04/02 02:54:16;;;;;;;9.18;5.38;;;7.20;99.90;;;;;;4982941;28;20050;-62
2024/04/02 02:56:42;;;;;;;13.70;6.35;;;7.20;99.90;;;;;;4993521;28;20076;-62
2024/04/02 02:59:08;;;;;;;7.00;5.10;;;7.20;99.90;;;;;;4987274;28;20061;-62
2024/04/02 03:01:33;;;;;;;12.95;5.70;;;7.10;99.90;;;;;;4992182;28;20049;-62
2024/04/02 03:03:59;;;;;;;9.95;6.00;;;7.20;99.90;;;;;;4996643;28;20479;-62
2024/04/02 03:06:24;;;;;;;9.27;5.25;;;7.10;99.90;;;;;;4998039;28;20057;-62
2024/04/02 03:08:50;;;;;;;14.18;6.47;;;7.10;99.90;;;;;;4990925;28;20153;-62
2024/04/02 03:11:16;;;;;;;14.73;6.47;;;7.10;99.90;;;;;;4993344;28;20519;-62
2024/04/02 03:13:42;;;;;;;10.38;5.85;;;7.10;99.90;;;;;;4999819;28;20053;-62
2024/04/02 03:16:07;;;;;;;11.05;6.28;;;7.10;99.90;;;;;;4994459;28;20038;-62
2024/04/02 03:18:33;;;;;;;11.95;6.60;;;7.10;99.90;;;;;;5000964;28;20056;-62
2024/04/02 03:21:00;;;;;;;10.82;5.18;;;7.10;99.90;;;;;;4994417;28;20495;-62
2024/04/02 03:23:29;;;;;;;15.60;6.85;;;7.10;99.90;;;;;;4987244;28;20064;-62
2024/04/02 03:26:02;;;;;;;11.45;7.10;;;7.10;99.90;;;;;;5001552;28;20117;-62
2024/04/02 03:28:32;;;;;;;15.63;7.32;;;7.10;99.90;;;;;;4996931;28;20085;-62
2024/04/02 03:30:59;;;;;;;13.02;5.85;;;7.10;99.90;;;;;;4989415;28;20049;-62
2024/04/02 03:33:31;;;;;;;16.77;7.20;;;7.10;99.90;;;;;;5000166;28;20468;-62
2024/04/02 03:36:02;;;;;;;13.50;6.78;;;7.10;99.90;;;;;;4987084;28;20121;-62
2024/04/02 03:38:28;;;;;;;14.27;6.28;;;7.20;99.90;;;;;;4996256;28;20520;-62
2024/04/02 03:40:54;;;;;;;15.65;7.13;;;7.20;99.90;;;;;;4992744;28;20050;-62
2024/04/02 03:43:20;;;;;;;11.25;6.60;;;7.10;99.90;;;;;;4993872;28;20050;-62
2024/04/02 03:45:46;;;;;;;10.77;7.03;;;7.20;99.90;;;;;;5001073;28;20131;-62
2024/04/02 03:48:12;;;;;;;10.48;6.72;;;7.20;99.90;;;;;;4993628;28;20086;-64
2024/04/02 03:50:38;;;;;;;13.60;7.55;;;7.20;99.90;;;;;;4990773;28;20045;-65
2024/04/02 03:53:06;;;;;;;13.00;6.75;;;7.30;99.90;;;;;;5001794;28;20038;-64
2024/04/02 03:55:36;;;;;;;13.45;7.40;;;7.30;99.90;;;;;;4995136;28;20101;-64
2024/04/02 03:58:02;;;;;;;8.95;5.35;;;7.20;99.90;;;;;;4990240;28;20334;-64
2024/04/02 04:00:28;;;;;;;12.27;7.60;;;7.30;99.90;;;;;;4990549;28;20099;-64
2024/04/02 04:02:57;;;;;;;11.15;7.10;;;7.30;99.90;;;;;;5001236;28;20041;-64
2024/04/02 04:05:23;;;;;;;16.00;5.70;;;7.30;99.90;;;;;;4994883;28;20042;-65
2024/04/02 04:07:49;;;;;;;9.73;5.85;;;7.30;99.90;;;;;;5000555;28;20078;-64
2024/04/02 04:10:14;;;;;;;11.88;7.30;;;7.20;99.90;;;;;;4988355;28;20043;-65
2024/04/02 04:12:43;;;;;;;19.05;6.80;;;7.20;99.90;;;;;;4992052;28;20073;-65
2024/04/02 04:15:09;;;;;;;11.07;6.78;;;7.20;99.90;;;;;;5001837;28;20125;-64
2024/04/02 04:17:34;;;;;;;13.73;6.20;;;7.20;99.90;;;;;;4999436;28;20141;-64
2024/04/02 04:20:00;;;;;;;9.82;6.07;;;7.20;99.90;;;;;;4996687;28;20038;-64
2024/04/02 04:22:26;;;;;;;10.27;5.28;;;7.10;99.90;;;;;;5001110;28;20060;-64
2024/04/02 04:25:00;;;;;;;8.35;4.95;;;7.10;99.90;;;;;;5006479;28;20056;-65
2024/04/02 04:27:31;;;;;;;10.65;5.90;;;7.20;99.90;;;;;;4985118;28;20058;-65
2024/04/02 04:29:56;;;;;;;8.15;5.47;;;7.20;99.90;;;;;;4989424;28;20129;-65
2024/04/02 04:32:22;;;;;;;8.88;5.70;;;7.10;99.90;;;;;;4993297;28;20142;-64
2024/04/02 04:34:48;;;;;;;9.80;5.43;;;7.20;99.90;;;;;;4998940;28;20050;-65
2024/04/02 04:37:14;;;;;;;5.88;4.63;;;7.10;99.90;;;;;;4999037;28;20039;-65
2024/04/02 04:39:39;;;;;;;9.35;5.13;;;7.20;99.90;;;;;;4987262;28;20416;-65
2024/04/02 04:42:06;;;;;;;5.03;4.53;;;7.20;99.90;;;;;;5000586;28;20045;-65
2024/04/02 04:44:31;;;;;;;7.88;5.40;;;7.10;99.90;;;;;;5004115;28;20475;-64
2024/04/02 04:46:57;;;;;;;8.77;5.05;;;7.20;99.90;;;;;;5000049;28;20093;-65
2024/04/02 04:49:23;;;;;;;8.82;5.70;;;7.00;99.90;;;;;;5003624;28;20050;-64
2024/04/02 04:51:50;;;;;;;13.27;5.30;;;7.10;99.90;;;;;;5005219;28;20056;-65
2024/04/02 04:54:16;;;;;;;11.32;5.55;;;7.10;99.90;;;;;;4999908;28;20143;-64
2024/04/02 04:56:41;;;;;;;10.00;5.78;;;7.10;99.90;;;;;;4999557;28;20070;-64
2024/04/02 04:59:07;;;;;;;8.63;4.38;;;7.10;99.90;;;;;;4987338;28;20042;-65
2024/04/02 05:01:33;;;;;;;9.15;5.22;;;7.10;99.90;;;;;;4999559;28;20052;-65
2024/04/02 05:03:58;;;;;;;6.03;3.78;;;7.20;99.90;;;;;;5000254;28;20476;-65
2024/04/02 05:06:24;;;;;;;6.88;5.05;;;7.10;99.90;;;;;;5003953;28;20049;-65
2024/04/02 05:08:55;;;;;;;5.47;4.75;;;7.20;99.90;;;;;;5009302;28;20431;-65
2024/04/02 05:11:21;;;;;;;9.30;4.82;;;7.20;99.90;;;;;;4991695;28;20050;-64
2024/04/02 05:13:47;;;;;;;9.27;5.03;;;7.10;99.90;;;;;;5002124;28;20824;-65
2024/04/02 05:16:14;;;;;;;6.65;5.20;;;7.10;99.90;;;;;;5005347;28;20042;-65
2024/04/02 05:18:39;;;;;;;10.90;5.57;;;7.10;99.90;;;;;;4993126;28;20104;-65
2024/04/02 05:21:05;;;;;;;8.18;4.85;;;7.10;99.90;;;;;;5000203;28;20042;-65
2024/04/02 05:23:31;;;;;;;9.38;4.78;;;7.10;99.90;;;;;;4993249;28;20061;-65
2024/04/02 05:26:00;;;;;;;7.68;4.75;;;7.10;99.90;;;;;;4992193;28;20052;-65
2024/04/02 05:28:26;;;;;;;7.40;4.18;;;7.10;99.90;;;;;;4998489;28;20041;-64
2024/04/02 05:30:53;;;;;;;8.93;5.03;;;7.10;99.90;;;;;;5004514;28;20061;-64
2024/04/02 05:33:20;;;;;;;8.20;4.57;;;7.20;99.90;;;;;;5000396;28;20057;-65
2024/04/02 05:35:45;;;;;;;9.50;4.43;;;7.20;99.90;;;;;;5001564;28;20050;-65
2024/04/02 05:38:11;;;;;;;6.03;3.83;;;7.10;99.90;;;;;;4993889;28;20046;-65
2024/04/02 05:40:39;;;;;;;7.78;4.63;;;7.10;99.90;;;;;;4998429;28;20062;-64
2024/04/02 05:43:05;;;;;;;6.68;3.75;;;7.20;99.90;;;;;;4996935;28;20049;-65
2024/04/02 05:45:30;;;;;;;6.00;4.68;;;7.20;99.90;;;;;;5001521;28;20054;-64
2024/04/02 05:47:56;;;;;;;7.50;4.00;;;7.30;99.90;;;;;;4994506;28;20090;-65
2024/04/02 05:50:22;;;;;;;4.60;4.07;;;7.30;99.90;;;;;;5003842;28;20057;-65
2024/04/02 05:52:48;;;;;;;4.30;3.50;;;7.30;99.90;;;;;;4993543;28;20877;-65
2024/04/02 05:55:13;;;;;;;6.50;3.70;;;7.30;99.90;;;;;;4997789;28;20060;-65
2024/04/02 05:57:39;;;;;;;6.75;4.32;;;7.30;99.90;;;;;;4992421;28;20042;-65
2024/04/02 06:00:06;;;;;;;5.65;3.88;;;7.40;99.90;;;;;;4989721;28;20844;-65
2024/04/02 06:02:33;;;;;;;7.50;4.32;;;7.40;99.90;;;;;;4993870;28;20437;-65
2024/04/02 06:04:58;;;;;;;5.18;4.68;;;7.50;99.90;;;;;;5001071;28;20061;-64
2024/04/02 06:07:24;;;;;;;4.53;4.10;;;7.70;99.90;;;;;;4998001;28;20034;-64
2024/04/02 06:09:50;;;;;;;7.97;3.88;;;8.00;99.90;;;;;;4986681;28;20045;-65
2024/04/02 06:12:15;;;;;;;8.00;4.80;;;8.10;99.90;;;;;;4994761;28;20391;-65
2024/04/02 06:14:41;;;;;;;7.20;4.05;;;8.20;99.90;;;;;;4987425;28;20440;-65
2024/04/02 06:17:07;;;;;;;4.53;4.13;;;8.20;99.90;;;;;;4993024;28;20046;-65
2024/04/02 06:19:33;;;;;;;7.93;4.18;;;8.10;99.90;;;;;;4989007;28;20039;-65
2024/04/02 06:22:00;;;;;;;6.68;4.20;;;8.30;99.90;;;;;;4986567;28;20058;-65
2024/04/02 06:24:26;;;;;;;3.42;2.63;;;8.30;99.90;;;;;;5002437;28;20486;-65
2024/04/02 06:26:52;;;;;;;10.68;3.88;;;8.40;99.90;;;;;;5002862;28;20057;-65
2024/04/02 06:29:18;;;;;;;5.65;3.40;;;8.40;99.90;;;;;;4993278;28;20057;-65
2024/04/02 06:31:44;;;;;;;5.57;3.53;;;8.60;99.90;;;;;;4999543;28;20120;-65
2024/04/02 06:34:10;;;;;;;7.07;4.15;;;8.70;99.90;;;;;;5001494;28;20101;-65
2024/04/02 06:36:36;;;;;;;6.65;3.80;;;8.80;99.90;;;;;;5001036;28;20471;-64
2024/04/02 06:39:03;;;;;;;8.80;3.08;;;9.00;99.90;;;;;;4992131;28;20152;-65
2024/04/02 06:41:29;;;;;;;7.30;3.33;;;9.20;99.90;;;;;;4991570;28;20073;-65
2024/04/02 06:43:55;;;;;;;7.57;3.85;;;9.60;99.90;;;;;;5002171;28;20042;-62
2024/04/02 06:46:21;;;;;;;7.43;3.70;;;9.90;99.90;;;;;;5002253;28;20139;-62
2024/04/02 06:48:46;;;;;;;10.93;3.92;;;10.10;99.90;;;;;;4998973;28;20088;-62
2024/04/02 06:51:13;;;;;;;10.50;4.07;;;10.20;99.90;;;;;;5001355;28;20081;-62
2024/04/02 06:53:39;;;;;;;6.57;3.53;;;10.20;99.90;;;;;;5000844;28;20057;-62
2024/04/02 06:56:06;;;;;;;5.75;3.85;;;10.20;99.90;;;;;;4995123;28;20407;-62
2024/04/02 06:58:37;;;;;;;9.10;3.60;;;10.20;99.90;;;;;;4988597;28;20057;-62
2024/04/02 07:01:03;;;;;;;4.05;2.05;;;10.20;99.90;;;;;;5002299;28;20376;-62
2024/04/02 07:03:29;;;;;;;4.13;2.55;;;10.20;99.90;;;;;;4996603;28;20053;-62
2024/04/02 07:05:54;;;;;;;6.22;3.92;;;10.20;99.90;;;;;;4973082;28;20057;-62
2024/04/02 07:08:28;;;;;;;3.75;3.33;;;10.20;99.90;;;;;;4996828;28;20050;-62
2024/04/02 07:11:05;;;;;;;7.30;3.05;;;10.20;99.90;;;;;;4988227;28;20061;-62
2024/04/02 07:13:32;;;;;;;9.88;3.00;;;10.30;99.90;;;;;;4998326;28;20052;-62
2024/04/02 07:16:01;;;;;;;5.10;3.08;;;10.30;99.90;;;;;;5000502;28;20060;-62
2024/04/02 07:18:33;;;;;;;3.85;2.70;;;10.40;99.90;;;;;;4998031;28;20412;-62
2024/04/02 07:21:04;;;;;;;3.08;2.63;;;10.50;99.90;;;;;;4992002;28;20249;-62
2024/04/02 07:23:30;;;;;;;5.25;3.13;;;10.50;99.90;;;;;;4997498;28;20564;-62
2024/04/02 07:25:55;;;;;;;4.57;3.03;;;10.70;99.90;;;;;;4994045;28;20129;-62
2024/04/02 07:28:22;;;;;;;4.70;3.15;;;10.80;99.90;;;;;;4993914;28;20050;-62
2024/04/02 07:30:48;;;;;;;5.72;3.08;;;10.80;99.90;;;;;;4992279;28;20571;-62
2024/04/02 07:33:14;;;;;;;8.40;3.45;;;10.90;99.90;;;;;;4995904;28;20038;-62
2024/04/02 07:35:42;;;;;;;4.93;3.53;;;11.00;99.90;;;;;;4993193;28;20034;-62
2024/04/02 07:38:08;;;;;;;3.70;3.03;;;11.00;99.90;;;;;;4994755;28;20050;-62
2024/04/02 07:40:34;;;;;;;4.63;2.63;;;11.10;99.90;;;;;;4996439;28;20532;-62
2024/04/02 07:43:00;;;;;;;7.20;3.22;;;11.20;99.90;;;;;;4991489;28;20583;-62
2024/04/02 07:45:26;;;;;;;8.57;3.00;;;11.20;99.90;;;;;;5001296;28;20044;-62
2024/04/02 07:47:52;;;;;;;6.75;2.65;;;11.30;99.90;;;;;;4997927;28;20042;-62
2024/04/02 07:50:18;;;;;;;7.13;3.28;;;11.40;99.90;;;;;;4997593;28;20056;-62
2024/04/02 07:52:44;;;;;;;5.95;2.95;;;11.40;1.00;;;;;;5004268;28;20060;-62
2024/04/02 07:55:10;;;;;;;6.28;2.97;;;11.50;99.90;;;;;;4991602;28;20046;-62
2024/04/02 07:57:36;;;;;;;3.95;2.53;;;11.60;1.00;;;;;;5003105;28;20765;-62
2024/04/02 08:00:03;;;;;;;7.75;3.38;;;11.70;1.00;;;;;;5001347;28;20112;-62
2024/04/02 08:02:28;;;;;;;5.30;3.15;;;11.70;1.00;;;;;;5002114;28;20050;-62
2024/04/02 08:04:55;;;;;;;5.80;3.03;;;11.70;1.00;;;;;;5003927;28;20176;-62
2024/04/02 08:07:21;;;;;;;4.03;2.42;;;11.80;1.00;;;;;;4998597;28;20137;-62
2024/04/02 08:09:46;;;;;;;9.43;3.35;;;11.80;1.00;;;;;;4993257;28;20053;-62
2024/04/02 08:12:12;;;;;;;6.28;3.20;;;11.70;1.00;;;;;;4974586;28;20046;-62
2024/04/02 08:14:39;;;;;;;9.07;3.45;;;11.60;1.00;;;;;;5002816;28;20455;-62
2024/04/02 08:17:04;;;;;;;2.85;1.85;;;11.60;1.00;;;;;;5005583;28;20073;-62
2024/04/02 08:19:30;;;;;;;4.95;2.45;;;11.40;1.00;;;;;;5001429;28;20165;-62
2024/04/02 08:21:56;;;;;;;9.15;3.08;;;11.50;13.20;;;;;;5004170;28;20057;-62
2024/04/02 08:24:28;;;;;;;5.43;2.33;;;11.40;1.00;;;;;;4998638;28;20783;-62
2024/04/02 08:26:54;;;;;;;7.72;3.63;;;11.40;1.00;;;;;;4999270;28;20042;-62
2024/04/02 08:29:19;;;;;;;4.70;3.25;;;11.50;51.20;;;;;;4998401;28;20430;-62
2024/04/02 08:31:45;;;;;;;7.45;3.72;;;11.50;1.00;;;;;;4990560;28;20429;-62
2024/04/02 08:34:13;;;;;;;7.32;2.55;;;11.50;1.00;;;;;;4985417;28;20053;-62
2024/04/02 08:36:39;;;;;;;10.73;4.57;;;11.50;1.00;;;;;;4990280;28;20042;-62
2024/04/02 08:39:06;;;;;;;9.38;3.88;;;11.60;1.00;;;;;;4998639;28;20030;-62
2024/04/02 08:41:36;;;;;;;1.77;1.67;;;11.50;1.90;;;;;;4999332;28;20515;-62
2024/04/02 08:44:01;;;;;;;5.40;2.85;;;11.40;1.00;;;;;;5002311;28;20157;-62
2024/04/02 08:46:28;;;;;;;7.20;3.10;;;11.40;1.00;;;;;;4995843;28;20128;-63
2024/04/02 08:48:56;;;;;;;8.95;3.60;;;11.50;1.00;;;;;;5001957;28;20050;-62
2024/04/02 08:51:22;;;;;;;5.53;3.40;;;11.40;1.00;;;;;;5000756;28;20064;-62
2024/04/02 08:53:48;;;;;;;3.08;2.10;;;11.40;1.00;;;;;;4998272;28;20038;-62
2024/04/02 08:56:17;;;;;;;3.70;1.50;;;11.30;1.00;;;;;;4990474;28;20057;-62
2024/04/02 08:58:45;;;;;;;13.10;4.20;;;11.20;1.00;;;;;;4990312;28;20053;-62
2024/04/02 09:01:14;;;;;;;3.08;1.88;;;11.20;58.00;;;;;;5000793;28;20424;-62
2024/04/02 09:03:41;;;;;;;5.55;2.75;;;11.20;36.50;;;;;;4991676;28;20042;-63
2024/04/02 09:06:07;;;;;;;9.27;2.80;;;11.20;1.00;;;;;;5002902;28;20073;-63
2024/04/02 09:08:46;;;;;;;4.68;2.08;;;11.20;1.00;;;;;;4993558;28;20073;-63
2024/04/02 09:11:13;;;;;;;9.55;3.10;;;11.10;1.00;;;;;;4995142;28;20042;-63
2024/04/02 09:13:39;;;;;;;1.38;1.27;;;11.20;40.80;;;;;;4991099;28;20051;-63
2024/04/02 09:16:06;;;;;;;1.85;1.75;;;11.20;1.00;;;;;;4990160;28;20443;-64
2024/04/02 09:18:35;;;;;;;5.43;1.83;;;11.30;1.00;;;;;;5000372;28;20061;-63
2024/04/02 09:21:02;;;;;;;6.53;2.75;;;11.30;22.70;;;;;;5001888;28;20049;-63
2024/04/02 09:23:28;;;;;;;7.22;3.00;;;11.30;1.00;;;;;;4998025;28;20366;-63
2024/04/02 09:25:55;;;;;;;8.20;2.85;;;11.40;15.00;;;;;;5000628;28;20081;-63
2024/04/02 09:28:21;;;;;;;5.97;3.80;;;11.30;1.00;;;;;;5001163;28;20100;-64
2024/04/02 09:30:47;;;;;;;5.68;2.80;;;11.40;1.00;;;;;;5003636;28;20052;-63
2024/04/02 09:33:15;;;;;;;5.82;2.92;;;11.40;1.00;;;;;;4991738;28;20351;-63
2024/04/02 09:36:05;;;;;;;4.75;3.13;;;11.50;1.00;;;;;;4996821;28;20042;-63
2024/04/02 09:38:35;;;;;;;4.05;2.03;;;11.60;1.00;;;;;;4995391;28;20045;-63
2024/04/02 09:41:05;;;;;;;8.10;2.78;;;11.70;1.00;;;;;;4987326;28;20046;-63
2024/04/02 09:43:33;;;;;;;6.07;2.42;;;11.90;1.00;;;;;;4990110;28;20536;-63
2024/04/02 09:46:01;;;;;;;7.13;3.35;;;12.00;1.00;;;;;;4989496;28;20046;-63
2024/04/02 09:48:39;;;;;;;5.70;2.28;;;12.10;1.00;;;;;;4997447;28;20092;-63
2024/04/02 09:51:06;;;;;;;8.40;2.28;;;12.20;99.90;;;;;;4997989;28;20045;-63
2024/04/02 09:53:35;;;;;;;17.38;3.03;;;12.10;99.90;;;;;;4991187;28;20080;-64
2024/04/02 09:56:01;;;;;;;6.20;2.47;;;12.10;99.90;;;;;;5001262;28;20839;-63
2024/04/02 09:58:27;;;;;;;7.03;2.75;;;12.20;99.90;;;;;;5000747;28;20042;-64
2024/04/02 10:00:59;;;;;;;7.63;2.28;;;12.30;99.90;;;;;;4996664;28;20602;-64
2024/04/02 10:03:28;;;;;;;9.15;2.70;;;12.50;99.90;;;;;;4994094;28;20076;-63
2024/04/02 10:06:04;;;;;;;6.13;2.20;;;12.50;99.90;;;;;;4992540;28;20052;-63
2024/04/02 10:08:31;;;;;;;8.02;2.17;;;12.60;99.90;;;;;;4994076;28;20093;-63
2024/04/02 10:11:03;;;;;;;4.70;2.08;;;12.70;99.90;;;;;;5009881;28;20077;-63
2024/04/02 10:13:39;;;;;;;7.28;2.95;;;12.80;99.90;;;;;;4990556;28;20121;-63
2024/04/02 10:16:14;;;;;;;4.93;1.38;;;12.80;99.90;;;;;;5001954;28;20047;-63
2024/04/02 10:18:45;;;;;;;7.15;2.47;;;13.00;99.90;;;;;;4989474;28;20136;-63
2024/04/02 10:21:11;;;;;;;4.03;2.00;;;13.20;99.90;;;;;;4986783;28;20058;-63
2024/04/02 10:23:37;;;;;;;4.90;2.05;;;13.30;99.90;;;;;;4987336;28;20054;-63
2024/04/02 10:26:09;;;;;;;11.38;2.92;;;13.20;99.90;;;;;;4989399;28;20065;-63
2024/04/02 10:28:35;;;;;;;9.57;2.88;;;13.00;99.90;;;;;;4989275;28;20045;-63
2024/04/02 10:31:16;;;;;;;11.38;3.10;;;12.80;99.90;;;;;;5000363;28;20642;-63
2024/04/02 10:33:46;;;;;;;12.00;2.85;;;12.60;99.90;;;;;;4996421;28;20124;-63
2024/04/02 10:36:13;;;;;;;14.95;3.28;;;12.60;99.90;;;;;;5000726;28;20042;-63
2024/04/02 10:38:39;;;;;;;11.93;2.50;;;12.70;99.90;;;;;;5002130;28;20065;-63
2024/04/02 10:41:06;;;;;;;8.80;2.08;;;12.90;99.90;;;;;;4999937;28;20169;-63
2024/04/02 10:43:32;;;;;;;7.13;1.80;;;12.90;99.90;;;;;;4996815;28;20049;-63
2024/04/02 10:45:59;;;;;;;7.18;2.42;;;12.90;99.90;;;;;;4978101;28;20422;-64
2024/04/02 10:48:26;;;;;;;11.18;2.00;;;12.90;99.90;;;;;;4992070;28;20065;-63
2024/04/02 10:50:52;;;;;;;8.52;2.40;;;12.80;99.90;;;;;;4994195;28;20440;-63
2024/04/02 10:53:18;;;;;;;11.25;2.42;;;12.60;99.90;;;;;;4993663;28;20053;-63
2024/04/02 10:55:44;;;;;;;6.07;1.70;;;12.50;99.90;;;;;;4995068;28;20410;-63
2024/04/02 10:58:10;;;;;;;12.15;2.28;;;12.50;99.90;;;;;;4995138;28;20078;-63
2024/04/02 11:00:36;;;;;;;15.05;2.38;;;12.40;99.90;;;;;;4997551;28;20544;-63
2024/04/02 11:03:04;;;;;;;8.32;2.17;;;12.40;99.90;;;;;;4992089;28;20081;-63
2024/04/02 11:05:30;;;;;;;11.73;3.38;;;12.40;99.90;;;;;;5000264;28;20128;-63
2024/04/02 11:07:57;;;;;;;9.65;3.05;;;12.40;99.90;;;;;;4988274;28;20046;-63
2024/04/02 11:10:24;;;;;;;13.38;2.80;;;12.30;99.90;;;;;;4987071;28;20057;-63
2024/04/02 11:12:50;;;;;;;16.80;2.72;;;12.40;99.90;;;;;;4989075;28;20453;-63
2024/04/02 11:15:21;;;;;;;22.85;3.13;;;12.40;99.90;;;;;;4990789;28;20111;-63
2024/04/02 11:17:47;;;;;;;7.72;2.70;;;12.50;99.90;;;;;;4994769;28;20530;-63
2024/04/02 11:20:14;;;;;;;8.20;2.80;;;12.70;99.90;;;;;;5001481;28;20057;-63
2024/04/02 11:25:24;;;;;;;11.98;2.83;;;13.30;99.90;;;;;;4987673;28;20049;-63
2024/04/02 11:27:50;;;;;;;7.05;2.53;;;13.60;99.90;;;;;;4996552;28;20042;-63
2024/04/02 11:30:20;;;;;;;8.65;2.33;;;13.60;99.90;;;;;;5000019;28;20088;-63
2024/04/02 11:32:48;;;;;;;7.57;1.85;;;13.50;99.90;;;;;;5002451;28;20049;-63
2024/04/02 11:35:16;;;;;;;7.47;2.40;;;13.30;99.90;;;;;;4977832;28;20489;-63
2024/04/02 11:37:44;;;;;;;6.18;2.20;;;13.20;99.90;;;;;;4992362;28;20733;-63
2024/04/02 11:40:15;;;;;;;15.30;3.35;;;12.90;99.90;;;;;;4990308;28;20107;-63
2024/04/02 11:42:41;;;;;;;4.85;2.22;;;12.70;99.90;;;;;;4991204;28;20049;-62
2024/04/02 11:45:08;;;;;;;7.75;2.50;;;12.60;99.90;;;;;;5002664;28;20053;-63
2024/04/02 11:47:34;;;;;;;10.18;3.30;;;12.50;99.90;;;;;;4999876;28;20526;-63
2024/04/02 11:50:01;;;;;;;9.02;3.30;;;12.50;99.90;;;;;;4995543;28;20039;-63
2024/04/02 11:52:27;;;;;;;12.15;3.50;;;12.50;99.90;;;;;;5000431;28;20873;-63
2024/04/02 11:54:52;;;;;;;11.35;3.50;;;12.60;99.90;;;;;;4995473;28;20092;-63
2024/04/02 12:00:13;;;;;;;11.48;3.33;;;12.60;99.90;;;;;;4999237;28;20046;-64
2024/04/02 12:02:40;;;;;;;11.40;2.65;;;12.50;99.90;;;;;;4993935;28;20127;-63
2024/04/02 12:05:06;;;;;;;7.82;3.33;;;12.40;99.90;;;;;;4988427;28;20273;-62
2024/04/02 12:07:33;;;;;;;5.85;3.03;;;12.40;99.90;;;;;;5002238;28;20159;-62
2024/04/02 12:10:00;;;;;;;9.20;4.18;;;12.50;99.90;;;;;;4991751;28;20660;-62
2024/04/02 12:12:27;;;;;;;14.10;3.53;;;12.80;99.90;;;;;;4988994;28;20061;-63
2024/04/02 12:14:54;;;;;;;12.43;3.88;;;12.90;99.90;;;;;;5000956;28;20487;-62
2024/04/02 12:17:23;;;;;;;8.18;3.20;;;13.00;99.90;;;;;;4989995;28;20133;-63
2024/04/02 12:19:50;;;;;;;5.78;2.60;;;13.00;99.90;;;;;;4986494;28;20042;-63
2024/04/02 12:22:17;;;;;;;7.78;3.72;;;13.00;99.90;;;;;;4999066;28;20381;-62
2024/04/02 12:24:43;;;;;;;9.48;4.25;;;13.10;99.90;;;;;;4996419;28;20049;-63
2024/04/02 12:27:08;;;;;;;8.50;4.18;;;13.10;99.90;;;;;;4984151;28;20940;-62
2024/04/02 12:29:36;;;;;;;8.90;3.42;;;13.10;99.90;;;;;;4988616;28;20050;-63
2024/04/02 12:32:03;;;;;;;10.57;2.45;;;13.10;99.90;;;;;;4990753;28;20143;-62
2024/04/02 12:34:29;;;;;;;9.20;3.30;;;13.10;99.90;;;;;;5001068;28;20053;-63
2024/04/02 12:36:55;;;;;;;7.40;3.25;;;13.00;99.90;;;;;;5002208;28;20476;-63
2024/04/02 12:39:21;;;;;;;7.00;2.63;;;13.00;99.90;;;;;;4994898;28;20680;-62
2024/04/02 12:41:50;;;;;;;14.88;3.50;;;13.00;99.90;;;;;;5000589;28;20046;-62
2024/04/02 12:44:16;;;;;;;6.05;2.15;;;13.00;99.90;;;;;;4997409;28;20236;-62
2024/04/02 12:46:42;;;;;;;8.27;2.97;;;13.00;99.90;;;;;;4999665;28;20046;-62
2024/04/02 12:49:12;;;;;;;6.47;2.15;;;13.00;99.90;;;;;;4995546;28;20045;-62
2024/04/02 12:51:38;;;;;;;7.53;1.88;;;13.00;99.90;;;;;;5004318;28;20054;-63
2024/04/02 12:54:04;;;;;;;1.95;1.42;;;13.00;99.90;;;;;;5005655;28;20088;-63